createdAt,value
2016-04-18T00:00:43.208Z,39.08
2016-04-18T00:01:42.773Z,38.79
2016-04-18T00:02:42.745Z,38.99
2016-04-18T00:03:42.748Z,38.99
2016-04-18T00:04:42.718Z,38.99
2016-04-18T00:05:42.691Z,38.87
2016-04-18T00:06:42.678Z,38.96
2016-04-18T00:07:42.649Z,39.18
2016-04-18T00:08:43.199Z,38.6
2016-04-18T00:09:42.639Z,39.08
2016-04-18T00:10:42.595Z,38.89
2016-04-18T00:11:42.581Z,38.89
2016-04-18T00:12:42.553Z,38.99
2016-04-18T00:13:42.539Z,39.37
2016-04-18T00:14:42.511Z,38.89
2016-04-18T00:15:42.535Z,38.99
2016-04-18T00:16:43.268Z,38.96
2016-04-18T00:17:42.564Z,39.45
2016-04-18T00:18:42.594Z,39.35
2016-04-18T00:19:42.609Z,39.35
2016-04-18T00:20:42.625Z,39.47
2016-04-18T00:21:42.643Z,39.56
2016-04-18T00:22:42.614Z,39.45
2016-04-18T00:23:42.617Z,39.45
2016-04-18T00:24:43.557Z,39.28
2016-04-18T00:25:42.602Z,39.56
2016-04-18T00:26:42.594Z,39.28
2016-04-18T00:27:42.572Z,39.18
2016-04-18T00:28:42.564Z,39.56
2016-04-18T00:29:42.558Z,39.56
2016-04-18T00:30:42.532Z,39.54
2016-04-18T00:31:42.522Z,39.54
2016-04-18T00:32:42.823Z,39.54
2016-04-18T00:33:42.484Z,39.54
2016-04-18T00:34:42.457Z,39.08
2016-04-18T00:35:42.461Z,39.47
2016-04-18T00:36:42.433Z,39.45
2016-04-18T00:37:42.405Z,39.45
2016-04-18T00:38:42.393Z,39.16
2016-04-18T00:39:42.365Z,39.26
2016-04-18T00:40:42.806Z,39.45
2016-04-18T00:41:42.324Z,39.45
2016-04-18T00:42:42.313Z,39.26
2016-04-18T00:43:42.284Z,39.26
2016-04-18T00:44:42.287Z,39.54
2016-04-18T00:45:42.259Z,39.35
2016-04-18T00:46:42.246Z,39.45
2016-04-18T00:47:42.217Z,39.54
2016-04-18T00:48:42.188Z,39.26
2016-04-18T00:49:42.192Z,39.45
2016-04-18T00:50:42.164Z,39.54
2016-04-18T00:51:42.135Z,39.54
2016-04-18T00:52:42.122Z,39.35
2016-04-18T00:53:41.936Z,39.45
2016-04-18T00:54:42.080Z,39.35
2016-04-18T00:55:42.067Z,39.54
2016-04-18T00:56:42.039Z,39.35
2016-04-18T00:57:42.026Z,39.83
2016-04-18T00:58:42.013Z,39.45
2016-04-18T00:59:42.000Z,39.73
2016-04-18T01:00:41.972Z,39.64
2016-04-18T01:01:41.943Z,39.45
2016-04-18T01:02:41.946Z,39.73
2016-04-18T01:03:41.932Z,39.64
2016-04-18T01:04:41.888Z,39.73
2016-04-18T01:05:41.876Z,39.73
2016-04-18T01:06:41.847Z,39.54
2016-04-18T01:07:41.849Z,39.73
2016-04-18T01:08:41.806Z,39.64
2016-04-18T01:09:41.792Z,39.64
2016-04-18T01:10:41.779Z,39.64
2016-04-18T01:11:41.767Z,39.73
2016-04-18T01:12:41.738Z,39.83
2016-04-18T01:13:41.725Z,39.73
2016-04-18T01:14:41.697Z,39.73
2016-04-18T01:15:41.683Z,39.64
2016-04-18T01:16:41.655Z,39.93
2016-04-18T01:17:41.642Z,39.73
2016-04-18T01:18:41.613Z,39.93
2016-04-18T01:19:41.601Z,39.83
2016-04-18T01:20:41.588Z,39.73
2016-04-18T01:21:41.558Z,40.02
2016-04-18T01:22:41.547Z,39.73
2016-04-18T01:23:41.517Z,39.83
2016-04-18T01:24:41.504Z,39.83
2016-04-18T01:25:41.477Z,39.73
2016-04-18T01:26:41.464Z,39.73
2016-04-18T01:27:41.449Z,39.73
2016-04-18T01:28:41.453Z,39.93
2016-04-18T01:29:41.408Z,39.64
2016-04-18T01:30:41.380Z,39.64
2016-04-18T01:31:41.383Z,39.64
2016-04-18T01:32:41.338Z,39.54
2016-04-18T01:33:41.341Z,39.64
2016-04-18T01:34:41.313Z,39.35
2016-04-18T01:35:41.285Z,39.54
2016-04-18T01:36:41.271Z,39.73
2016-04-18T01:37:41.259Z,39.64
2016-04-18T01:38:41.229Z,40.22
2016-04-18T01:39:41.217Z,39.45
2016-04-18T01:40:41.203Z,40.22
2016-04-18T01:41:41.176Z,40.22
2016-04-18T01:42:41.162Z,40.22
2016-04-18T01:43:41.134Z,39.45
2016-04-18T01:44:41.121Z,40.22
2016-04-18T01:45:41.109Z,40.12
2016-04-18T01:46:41.079Z,39.83
2016-04-18T01:47:41.051Z,39.83
2016-04-18T01:48:41.038Z,40.02
2016-04-18T01:49:41.025Z,39.73
2016-04-18T01:50:40.996Z,39.93
2016-04-18T01:51:40.983Z,39.93
2016-04-18T01:52:40.986Z,39.93
2016-04-18T01:53:40.958Z,40.02
2016-04-18T01:54:40.913Z,39.93
2016-04-18T01:55:40.900Z,39.93
2016-04-18T01:56:40.888Z,39.93
2016-04-18T01:57:40.875Z,40.02
2016-04-18T01:58:40.846Z,40.02
2016-04-18T01:59:40.833Z,40.12
2016-04-18T02:00:40.820Z,39.73
2016-04-18T02:01:40.791Z,39.93
2016-04-18T02:02:40.763Z,39.83
2016-04-18T02:03:40.749Z,39.83
2016-04-18T02:04:40.738Z,40.22
2016-04-18T02:05:40.724Z,39.93
2016-04-18T02:06:40.695Z,40.12
2016-04-18T02:07:40.682Z,40.41
2016-04-18T02:08:40.764Z,40.31
2016-04-18T02:09:40.626Z,40.41
2016-04-18T02:10:40.612Z,39.83
2016-04-18T02:11:40.600Z,40.02
2016-04-18T02:12:40.587Z,40.02
2016-04-18T02:13:40.559Z,39.54
2016-04-18T02:14:40.545Z,40.22
2016-04-18T02:15:40.532Z,40.31
2016-04-18T02:16:40.801Z,40.31
2016-04-18T02:17:40.475Z,39.93
2016-04-18T02:18:40.462Z,40.31
2016-04-18T02:19:40.434Z,40.41
2016-04-18T02:20:40.421Z,40.12
2016-04-18T02:21:40.408Z,40.31
2016-04-18T02:22:40.380Z,40.31
2016-04-18T02:23:40.366Z,40.41
2016-04-18T02:24:40.791Z,40.31
2016-04-18T02:25:40.324Z,40.5
2016-04-18T02:26:40.297Z,40.41
2016-04-18T02:27:40.283Z,40.41
2016-04-18T02:28:40.271Z,40.7
2016-04-18T02:29:40.242Z,40.89
2016-04-18T02:30:40.229Z,40.58
2016-04-18T02:31:40.216Z,41.08
2016-04-18T02:32:40.797Z,41.08
2016-04-18T02:33:40.174Z,41.08
2016-04-18T02:34:40.146Z,40.99
2016-04-18T02:35:40.133Z,41.08
2016-04-18T02:36:40.120Z,40.89
2016-04-18T02:37:40.091Z,40.99
2016-04-18T02:38:40.078Z,40.99
2016-04-18T02:39:40.066Z,40.89
2016-04-18T02:40:40.100Z,40.79
2016-04-18T02:41:40.009Z,40.89
2016-04-18T02:42:39.996Z,40.89
2016-04-18T02:43:39.967Z,40.79
2016-04-18T02:44:39.953Z,40.79
2016-04-18T02:45:39.941Z,40.79
2016-04-18T02:46:39.912Z,40.7
2016-04-18T02:47:39.900Z,40.7
2016-04-18T02:48:40.839Z,40.89
2016-04-18T02:49:39.858Z,40.79
2016-04-18T02:50:39.845Z,40.7
2016-04-18T02:51:39.817Z,40.7
2016-04-18T02:52:39.803Z,40.79
2016-04-18T02:53:39.791Z,40.89
2016-04-18T02:54:39.762Z,40.79
2016-04-18T02:55:39.734Z,40.79
2016-04-18T02:56:40.064Z,40.7
2016-04-18T02:57:39.708Z,40.79
2016-04-18T02:58:39.694Z,40.7
2016-04-18T02:59:39.667Z,40.7
2016-04-18T03:00:39.637Z,40.89
2016-04-18T03:01:39.625Z,40.89
2016-04-18T03:02:39.596Z,40.79
2016-04-18T03:03:39.693Z,40.79
2016-04-18T03:04:39.570Z,40.89
2016-04-18T03:05:39.557Z,40.79
2016-04-18T03:06:39.529Z,40.79
2016-04-18T03:07:39.516Z,40.89
2016-04-18T03:08:39.488Z,40.87
2016-04-18T03:09:39.475Z,40.99
2016-04-18T03:10:39.446Z,40.79
2016-04-18T03:11:39.683Z,41.08
2016-04-18T03:12:39.404Z,41.06
2016-04-18T03:13:39.392Z,40.79
2016-04-18T03:14:39.363Z,40.89
2016-04-18T03:15:39.351Z,40.67
2016-04-18T03:16:39.321Z,40.77
2016-04-18T03:17:39.324Z,41.06
2016-04-18T03:18:39.296Z,41.08
2016-04-18T03:19:39.767Z,41.08
2016-04-18T03:20:39.270Z,41.08
2016-04-18T03:21:39.241Z,40.99
2016-04-18T03:22:39.212Z,40.87
2016-04-18T03:23:39.200Z,41.27
2016-04-18T03:24:39.172Z,41.25
2016-04-18T03:25:39.158Z,40.87
2016-04-18T03:26:39.145Z,40.79
2016-04-18T03:27:39.772Z,41.37
2016-04-18T03:28:39.103Z,40.87
2016-04-18T03:29:39.074Z,41.25
2016-04-18T03:30:39.062Z,41.25
2016-04-18T03:31:39.049Z,41.25
2016-04-18T03:32:39.021Z,41.25
2016-04-18T03:33:39.008Z,41.25
2016-04-18T03:34:38.994Z,41.44
2016-04-18T03:35:39.013Z,41.44
2016-04-18T03:36:38.937Z,41.06
2016-04-18T03:37:38.924Z,41.06
2016-04-18T03:38:38.896Z,41.08
2016-04-18T03:39:38.883Z,41.08
2016-04-18T03:40:38.871Z,41.06
2016-04-18T03:41:38.857Z,41.08
2016-04-18T03:42:38.829Z,41.08
2016-04-18T03:43:39.019Z,41.25
2016-04-18T03:44:38.787Z,41.54
2016-04-18T03:45:38.774Z,41.25
2016-04-18T03:46:38.745Z,41.16
2016-04-18T03:47:38.718Z,40.96
2016-04-18T03:48:38.720Z,41.35
2016-04-18T03:49:38.692Z,41.44
2016-04-18T03:50:38.678Z,41.44
2016-04-18T03:51:39.744Z,41.25
2016-04-18T03:52:38.637Z,41.44
2016-04-18T03:53:38.608Z,41.44
2016-04-18T03:54:38.627Z,41.06
2016-04-18T03:55:38.582Z,41.16
2016-04-18T03:56:38.553Z,41.25
2016-04-18T03:57:38.525Z,41.25
2016-04-18T03:58:38.513Z,41.25
2016-04-18T03:59:38.500Z,41.16
2016-04-18T04:00:38.471Z,41.25
2016-04-18T04:01:38.442Z,41.25
2016-04-18T04:02:38.445Z,41.35
2016-04-18T04:03:38.417Z,41.25
2016-04-18T04:04:38.404Z,41.16
2016-04-18T04:05:38.375Z,41.25
2016-04-18T04:06:38.346Z,41.06
2016-04-18T04:07:38.333Z,41.06
2016-04-18T04:08:38.321Z,41.16
2016-04-18T04:09:38.198Z,41.35
2016-04-18T04:10:38.279Z,41.16
2016-04-18T04:11:38.251Z,41.16
2016-04-18T04:12:38.238Z,41.25
2016-04-18T04:13:38.209Z,41.25
2016-04-18T04:14:38.196Z,41.25
2016-04-18T04:15:38.184Z,41.35
2016-04-18T04:16:38.170Z,41.35
2016-04-18T04:17:38.142Z,41.44
2016-04-18T04:18:38.113Z,41.44
2016-04-18T04:19:38.100Z,41.35
2016-04-18T04:20:38.072Z,41.35
2016-04-18T04:21:38.058Z,41.35
2016-04-18T04:22:38.046Z,41.54
2016-04-18T04:23:38.017Z,41.63
2016-04-18T04:24:38.051Z,41.44
2016-04-18T04:25:37.976Z,41.35
2016-04-18T04:26:37.963Z,41.44
2016-04-18T04:27:37.950Z,41.44
2016-04-18T04:28:37.921Z,41.44
2016-04-18T04:29:37.893Z,41.35
2016-04-18T04:30:37.895Z,41.54
2016-04-18T04:31:37.883Z,41.63
2016-04-18T04:32:37.838Z,41.54
2016-04-18T04:33:37.825Z,41.73
2016-04-18T04:34:37.797Z,41.63
2016-04-18T04:35:37.783Z,41.35
2016-04-18T04:36:37.771Z,41.73
2016-04-18T04:37:37.742Z,41.73
2016-04-18T04:38:37.713Z,41.63
2016-04-18T04:39:37.810Z,41.73
2016-04-18T04:40:37.688Z,41.73
2016-04-18T04:41:37.660Z,41.83
2016-04-18T04:42:37.662Z,41.63
2016-04-18T04:43:37.634Z,41.73
2016-04-18T04:44:37.604Z,41.73
2016-04-18T04:45:37.592Z,41.73
2016-04-18T04:46:37.562Z,41.73
2016-04-18T04:47:37.533Z,41.73
2016-04-18T04:48:37.536Z,41.73
2016-04-18T04:49:37.508Z,41.73
2016-04-18T04:50:37.495Z,41.83
2016-04-18T04:51:37.467Z,41.93
2016-04-18T04:52:37.453Z,41.93
2016-04-18T04:53:37.425Z,42.21
2016-04-18T04:54:37.444Z,42.21
2016-04-18T04:55:37.399Z,42.11
2016-04-18T04:56:37.371Z,42.02
2016-04-18T04:57:37.342Z,42.11
2016-04-18T04:58:37.329Z,41.93
2016-04-18T04:59:37.316Z,41.73
2016-04-18T05:00:37.288Z,41.83
2016-04-18T05:01:37.290Z,41.73
2016-04-18T05:02:37.246Z,41.83
2016-04-18T05:03:37.232Z,41.73
2016-04-18T05:04:37.204Z,41.73
2016-04-18T05:05:37.192Z,41.63
2016-04-18T05:06:37.179Z,41.54
2016-04-18T05:07:37.151Z,41.63
2016-04-18T05:08:37.137Z,41.35
2016-04-18T05:09:37.328Z,41.35
2016-04-18T05:10:37.095Z,41.35
2016-04-18T05:11:37.083Z,41.44
2016-04-18T05:12:37.054Z,41.44
2016-04-18T05:13:37.041Z,41.44
2016-04-18T05:14:37.012Z,41.54
2016-04-18T05:15:37.000Z,41.35
2016-04-18T05:16:36.987Z,41.35
2016-04-18T05:17:36.958Z,41.44
2016-04-18T05:18:36.945Z,41.35
2016-04-18T05:19:36.979Z,41.35
2016-04-18T05:20:36.903Z,41.35
2016-04-18T05:21:36.875Z,41.44
2016-04-18T05:22:36.878Z,41.35
2016-04-18T05:23:36.849Z,41.35
2016-04-18T05:24:36.821Z,41.54
2016-04-18T05:25:36.808Z,41.63
2016-04-18T05:26:36.794Z,41.63
2016-04-18T05:27:36.969Z,41.35
2016-04-18T05:28:36.753Z,41.73
2016-04-18T05:29:36.730Z,41.54
2016-04-18T05:30:36.702Z,41.63
2016-04-18T05:31:36.689Z,41.63
2016-04-18T05:32:36.661Z,41.63
2016-04-18T05:33:36.647Z,41.63
2016-04-18T05:34:36.619Z,41.83
2016-04-18T05:35:36.965Z,41.83
2016-04-18T05:36:36.577Z,41.63
2016-04-18T05:37:36.565Z,41.73
2016-04-18T05:38:36.552Z,41.83
2016-04-18T05:39:36.477Z,41.83
2016-04-18T05:40:36.526Z,42.02
2016-04-18T05:41:36.498Z,42.02
2016-04-18T05:42:36.484Z,42.3
2016-04-18T05:43:37.003Z,42.11
2016-04-18T05:44:36.426Z,42.11
2016-04-18T05:45:36.414Z,42.21
2016-04-18T05:46:36.401Z,42.4
2016-04-18T05:47:36.372Z,42.6
2016-04-18T05:48:36.360Z,42.5
2016-04-18T05:49:36.331Z,42.4
2016-04-18T05:50:36.318Z,42.4
2016-04-18T05:51:37.008Z,42.3
2016-04-18T05:52:36.277Z,42.4
2016-04-18T05:53:36.264Z,42.5
2016-04-18T05:54:36.111Z,42.4
2016-04-18T05:55:36.207Z,42.4
2016-04-18T05:56:36.195Z,42.4
2016-04-18T05:57:36.181Z,42.5
2016-04-18T05:58:36.153Z,42.98
2016-04-18T05:59:36.296Z,42.6
2016-04-18T06:00:36.127Z,42.6
2016-04-18T06:01:36.097Z,42.79
2016-04-18T06:02:36.085Z,42.79
2016-04-18T06:03:36.057Z,42.79
2016-04-18T06:04:36.044Z,42.88
2016-04-18T06:05:36.016Z,42.79
2016-04-18T06:06:36.002Z,42.98
2016-04-18T06:07:36.286Z,43.07
2016-04-18T06:08:35.960Z,42.69
2016-04-18T06:09:35.948Z,42.88
2016-04-18T06:10:35.918Z,42.79
2016-04-18T06:11:35.890Z,42.69
2016-04-18T06:12:35.877Z,42.6
2016-04-18T06:13:35.865Z,42.98
2016-04-18T06:14:35.899Z,43.17
2016-04-18T06:15:35.823Z,42.88
2016-04-18T06:16:35.810Z,43.17
2016-04-18T06:17:35.781Z,43.27
2016-04-18T06:18:35.769Z,42.98
2016-04-18T06:19:35.756Z,43.17
2016-04-18T06:20:35.712Z,43.27
2016-04-18T06:21:35.714Z,43.07
2016-04-18T06:22:35.936Z,43.27
2016-04-18T06:23:35.656Z,43.17
2016-04-18T06:24:35.722Z,43.07
2016-04-18T06:25:35.631Z,43.17
2016-04-18T06:26:35.603Z,43.27
2016-04-18T06:27:35.575Z,43.36
2016-04-18T06:28:35.561Z,43.36
2016-04-18T06:29:35.548Z,43.27
2016-04-18T06:30:35.880Z,43.17
2016-04-18T06:31:35.507Z,43.27
2016-04-18T06:32:35.478Z,43.07
2016-04-18T06:33:35.496Z,43.07
2016-04-18T06:34:35.453Z,43.46
2016-04-18T06:35:35.424Z,43.27
2016-04-18T06:36:35.411Z,43.17
2016-04-18T06:37:35.383Z,43.17
2016-04-18T06:38:35.932Z,42.98
2016-04-18T06:39:35.356Z,42.88
2016-04-18T06:40:35.328Z,43.17
2016-04-18T06:41:35.315Z,43.07
2016-04-18T06:42:35.287Z,43.07
2016-04-18T06:43:35.274Z,43.27
2016-04-18T06:44:35.276Z,43.46
2016-04-18T06:45:35.232Z,43.46
2016-04-18T06:46:35.906Z,43.36
2016-04-18T06:47:35.190Z,43.36
2016-04-18T06:48:35.178Z,43.46
2016-04-18T06:49:35.149Z,43.55
2016-04-18T06:50:35.152Z,43.55
2016-04-18T06:51:35.107Z,43.46
2016-04-18T06:52:35.095Z,43.46
2016-04-18T06:53:35.081Z,43.55
2016-04-18T06:54:35.209Z,43.65
2016-04-18T06:55:35.040Z,43.55
2016-04-18T06:56:35.012Z,43.74
2016-04-18T06:57:34.998Z,43.27
2016-04-18T06:58:34.970Z,43.27
2016-04-18T06:59:34.957Z,43.84
2016-04-18T07:00:34.928Z,43.46
2016-04-18T07:01:34.915Z,43.74
2016-04-18T07:02:35.199Z,43.84
2016-04-18T07:03:34.874Z,43.55
2016-04-18T07:04:34.860Z,43.46
2016-04-18T07:05:34.832Z,43.74
2016-04-18T07:06:34.819Z,43.65
2016-04-18T07:07:34.807Z,43.46
2016-04-18T07:08:34.778Z,43.46
2016-04-18T07:09:34.766Z,43.65
2016-04-18T07:10:34.737Z,43.65
2016-04-18T07:11:34.724Z,43.65
2016-04-18T07:12:34.710Z,43.84
2016-04-18T07:13:34.682Z,43.55
2016-04-18T07:14:34.653Z,43.65
2016-04-18T07:15:34.641Z,43.65
2016-04-18T07:16:34.628Z,43.65
2016-04-18T07:17:34.599Z,43.55
2016-04-18T07:18:34.586Z,43.65
2016-04-18T07:19:34.573Z,43.84
2016-04-18T07:20:34.544Z,43.65
2016-04-18T07:21:34.523Z,43.65
2016-04-18T07:22:34.510Z,44.03
2016-04-18T07:23:34.481Z,43.84
2016-04-18T07:24:34.469Z,43.48
2016-04-18T07:25:34.456Z,42.44
2016-04-18T07:26:34.458Z,41.41
2016-04-18T07:27:34.617Z,40.85
2016-04-18T07:28:34.402Z,40.11
2016-04-18T07:29:34.372Z,39.16
2016-04-18T07:30:34.360Z,38.51
2016-04-18T07:31:34.332Z,38.04
2016-04-18T07:32:34.318Z,37.56
2016-04-18T07:33:34.305Z,37.18
2016-04-18T07:34:34.308Z,37.01
2016-04-18T07:35:34.279Z,36.71
2016-04-18T07:36:34.251Z,36.52
2016-04-18T07:37:34.237Z,36.33
2016-04-18T07:38:34.225Z,36.23
2016-04-18T07:39:34.196Z,35.85
2016-04-18T07:40:34.183Z,35.94
2016-04-18T07:41:34.170Z,36.13
2016-04-18T07:42:34.142Z,35.65
2016-04-18T07:43:34.128Z,35.17
2016-04-18T07:44:34.116Z,34.58
2016-04-18T07:45:34.087Z,34.58
2016-04-18T07:46:34.074Z,33.61
2016-04-18T07:47:34.061Z,33.79
2016-04-18T07:48:34.048Z,33.59
2016-04-18T07:49:34.020Z,33.67
2016-04-18T07:50:34.008Z,33.77
2016-04-18T07:51:33.995Z,33.77
2016-04-18T07:52:33.966Z,33.48
2016-04-18T07:53:33.969Z,33.21
2016-04-18T07:54:33.939Z,32.82
2016-04-18T07:55:33.927Z,31.98
2016-04-18T07:56:33.898Z,31.99
2016-04-18T07:57:33.901Z,31.32
2016-04-18T07:58:33.872Z,30.56
2016-04-18T07:59:33.860Z,30.19
2016-04-18T08:00:33.830Z,28.85
2016-04-18T08:01:33.818Z,28.08
2016-04-18T08:02:33.804Z,27.71
2016-04-18T08:03:33.793Z,27.51
2016-04-18T08:04:33.763Z,26.55
2016-04-18T08:05:33.751Z,26.95
2016-04-18T08:06:33.737Z,26.55
2016-04-18T08:07:33.724Z,26.84
2016-04-18T08:08:33.712Z,26.45
2016-04-18T08:09:33.684Z,26.26
2016-04-18T08:10:33.670Z,26.07
2016-04-18T08:11:33.642Z,26.06
2016-04-18T08:12:33.644Z,25.76
2016-04-18T08:13:33.615Z,26.34
2016-04-18T08:14:33.618Z,25.86
2016-04-18T08:15:33.574Z,26.53
2016-04-18T08:16:33.577Z,26.33
2016-04-18T08:17:33.548Z,26.14
2016-04-18T08:18:33.536Z,25.67
2016-04-18T08:19:33.522Z,25.39
2016-04-18T08:20:33.510Z,25.02
2016-04-18T08:21:33.512Z,24.84
2016-04-18T08:22:33.469Z,24.85
2016-04-18T08:23:33.456Z,24.85
2016-04-18T08:24:33.428Z,24.66
2016-04-18T08:25:33.430Z,24.93
2016-04-18T08:26:33.400Z,24.93
2016-04-18T08:27:33.403Z,24.84
2016-04-18T08:28:33.374Z,25.13
2016-04-18T08:29:33.362Z,25.03
2016-04-18T08:30:33.349Z,24.92
2016-04-18T08:31:33.321Z,25.12
2016-04-18T08:32:33.308Z,25.5
2016-04-18T08:33:33.295Z,25.21
2016-04-18T08:34:33.282Z,25.2
2016-04-18T08:35:33.253Z,25.49
2016-04-18T08:36:33.241Z,25.38
2016-04-18T08:37:33.227Z,25.67
2016-04-18T08:38:33.168Z,26.15
2016-04-18T08:39:33.202Z,26.15
2016-04-18T08:40:33.173Z,25.95
2016-04-18T08:41:33.176Z,26.33
2016-04-18T08:42:33.147Z,26.22
2016-04-18T08:43:33.118Z,26.32
2016-04-18T08:44:33.106Z,26.61
2016-04-18T08:45:33.109Z,26.5
2016-04-18T08:46:33.173Z,26.69
2016-04-18T08:47:33.067Z,26.79
2016-04-18T08:48:33.038Z,26.69
2016-04-18T08:49:33.025Z,27.46
2016-04-18T08:50:33.012Z,27.17
2016-04-18T08:51:33.000Z,27.08
2016-04-18T08:52:32.987Z,27.17
2016-04-18T08:53:32.973Z,27.66
2016-04-18T08:54:33.195Z,27.55
2016-04-18T08:55:32.964Z,27.64
2016-04-18T08:56:32.935Z,27.93
2016-04-18T08:57:32.890Z,28.03
2016-04-18T08:58:32.877Z,28.13
2016-04-18T08:59:32.864Z,27.83
2016-04-18T09:00:32.851Z,28.41
2016-04-18T09:01:32.839Z,28.51
2016-04-18T09:02:33.216Z,28.41
2016-04-18T09:03:32.813Z,28.22
2016-04-18T09:04:32.784Z,28.22
2016-04-18T09:05:32.756Z,28.31
2016-04-18T09:06:32.758Z,28.4
2016-04-18T09:07:32.730Z,28.51
2016-04-18T09:08:32.718Z,28.4
2016-04-18T09:09:32.705Z,28.4
2016-04-18T09:10:33.518Z,28.49
2016-04-18T09:11:32.662Z,28.49
2016-04-18T09:12:32.666Z,28.59
2016-04-18T09:13:32.636Z,28.59
2016-04-18T09:14:32.624Z,28.49
2016-04-18T09:15:32.611Z,28.38
2016-04-18T09:16:32.598Z,28.96
2016-04-18T09:17:32.584Z,28.67
2016-04-18T09:18:33.228Z,28.77
2016-04-18T09:19:32.543Z,28.96
2016-04-18T09:20:32.515Z,28.67
2016-04-18T09:21:32.527Z,29.06
2016-04-18T09:22:32.540Z,29.06
2016-04-18T09:23:32.570Z,29.06
2016-04-18T09:24:32.615Z,29.63
2016-04-18T09:25:32.626Z,29.44
2016-04-18T09:26:32.734Z,29.24
2016-04-18T09:27:32.642Z,29.81
2016-04-18T09:28:32.630Z,29.81
2016-04-18T09:29:32.631Z,29.91
2016-04-18T09:30:32.619Z,30
2016-04-18T09:31:32.615Z,30.19
2016-04-18T09:32:32.608Z,30.29
2016-04-18T09:33:32.599Z,30.49
2016-04-18T09:34:32.826Z,30.39
2016-04-18T09:35:32.569Z,30.49
2016-04-18T09:36:32.560Z,30.39
2016-04-18T09:37:32.548Z,30.68
2016-04-18T09:38:32.523Z,30.87
2016-04-18T09:39:32.510Z,30.85
2016-04-18T09:40:32.359Z,31.06
2016-04-18T09:41:32.472Z,31.26
2016-04-18T09:42:32.883Z,31.05
2016-04-18T09:43:32.448Z,31.24
2016-04-18T09:44:32.435Z,31.24
2016-04-18T09:45:32.408Z,31.43
2016-04-18T09:46:32.396Z,31.62
2016-04-18T09:47:32.399Z,31.34
2016-04-18T09:48:32.355Z,31.43
2016-04-18T09:49:32.435Z,31.72
2016-04-18T09:50:32.327Z,31.72
2016-04-18T09:51:32.315Z,31.82
2016-04-18T09:52:32.318Z,31.82
2016-04-18T09:53:32.273Z,31.92
2016-04-18T09:54:32.260Z,31.92
2016-04-18T09:55:32.263Z,32.1
2016-04-18T09:56:32.219Z,32.01
2016-04-18T09:57:32.457Z,32.1
2016-04-18T09:58:32.193Z,31.92
2016-04-18T09:59:32.165Z,32.2
2016-04-18T10:00:32.152Z,32.2
2016-04-18T10:01:32.139Z,32.49
2016-04-18T10:02:32.142Z,32.2
2016-04-18T10:03:32.097Z,32.1
2016-04-18T10:04:32.084Z,31.83
2016-04-18T10:05:32.462Z,31.45
2016-04-18T10:06:32.043Z,30.88
2016-04-18T10:07:32.031Z,29.83
2016-04-18T10:08:32.017Z,29.65
2016-04-18T10:09:31.989Z,28.97
2016-04-18T10:10:32.039Z,28.31
2016-04-18T10:11:31.947Z,27.66
2016-04-18T10:12:31.984Z,27.48
2016-04-18T10:13:32.472Z,26.8
2016-04-18T10:14:31.895Z,26.53
2016-04-18T10:15:31.867Z,26.44
2016-04-18T10:16:31.870Z,25.86
2016-04-18T10:17:31.842Z,25.48
2016-04-18T10:18:31.844Z,25.49
2016-04-18T10:19:31.815Z,25.38
2016-04-18T10:20:31.818Z,25.09
2016-04-18T10:21:31.774Z,25.48
2016-04-18T10:22:31.761Z,25.19
2016-04-18T10:23:31.748Z,24.8
2016-04-18T10:24:36.016Z,25.09
2016-04-18T10:25:31.707Z,24.8
2016-04-18T10:26:31.693Z,24.88
2016-04-18T10:27:31.696Z,24.79
2016-04-18T10:28:31.668Z,24.98
2016-04-18T10:29:31.749Z,25.37
2016-04-18T10:30:31.626Z,25.18
2016-04-18T10:31:31.613Z,24.69
2016-04-18T10:32:31.600Z,24.49
2016-04-18T10:33:31.571Z,24.29
2016-04-18T10:34:31.559Z,24.29
2016-04-18T10:35:31.546Z,24.77
2016-04-18T10:36:31.518Z,24.77
2016-04-18T10:37:31.754Z,24.68
2016-04-18T10:38:31.492Z,24.67
2016-04-18T10:39:31.478Z,24.48
2016-04-18T10:40:31.451Z,24.86
2016-04-18T10:41:31.436Z,25.05
2016-04-18T10:42:31.517Z,25.07
2016-04-18T10:43:31.411Z,25.16
2016-04-18T10:44:31.398Z,25.07
2016-04-18T10:45:31.775Z,25.07
2016-04-18T10:46:31.357Z,25.16
2016-04-18T10:47:31.359Z,25.35
2016-04-18T10:48:31.331Z,25.08
2016-04-18T10:49:31.319Z,25.07
2016-04-18T10:50:31.290Z,25.35
2016-04-18T10:51:32.260Z,25.16
2016-04-18T10:52:31.263Z,25.16
2016-04-18T10:53:31.266Z,25.07
2016-04-18T10:54:31.238Z,25.45
2016-04-18T10:55:31.209Z,25.45
2016-04-18T10:56:33.337Z,25.16
2016-04-18T10:57:31.183Z,25.16
2016-04-18T10:58:31.170Z,24.77
2016-04-18T10:59:31.158Z,25.07
2016-04-18T11:00:31.129Z,25.26
2016-04-18T11:01:31.132Z,25.45
2016-04-18T11:02:31.103Z,25.64
2016-04-18T11:03:31.090Z,25.35
2016-04-18T11:04:31.061Z,25.26
2016-04-18T11:05:31.064Z,24.87
2016-04-18T11:06:31.035Z,24.58
2016-04-18T11:07:31.022Z,24.58
2016-04-18T11:08:31.009Z,24.58
2016-04-18T11:09:31.012Z,24.58
2016-04-18T11:10:30.968Z,24.68
2016-04-18T11:11:30.970Z,24.76
2016-04-18T11:12:30.942Z,24.76
2016-04-18T11:13:30.914Z,24.57
2016-04-18T11:14:30.916Z,24.96
2016-04-18T11:15:30.889Z,24.86
2016-04-18T11:16:30.875Z,24.76
2016-04-18T11:17:30.878Z,25.15
2016-04-18T11:18:30.833Z,24.86
2016-04-18T11:19:30.820Z,24.75
2016-04-18T11:20:30.808Z,24.86
2016-04-18T11:21:30.794Z,24.95
2016-04-18T11:22:30.783Z,24.96
2016-04-18T11:23:30.769Z,25.33
2016-04-18T11:24:30.756Z,25.63
2016-04-18T11:25:30.727Z,25.34
2016-04-18T11:26:30.714Z,25.15
2016-04-18T11:27:30.701Z,25.62
2016-04-18T11:28:30.674Z,25.23
2016-04-18T11:29:30.676Z,25.54
2016-04-18T11:30:30.646Z,25.82
2016-04-18T11:31:30.477Z,25.73
2016-04-18T11:32:30.621Z,25.34
2016-04-18T11:33:30.608Z,25.54
2016-04-18T11:34:30.580Z,25.15
2016-04-18T11:35:30.567Z,24.86
2016-04-18T11:36:30.553Z,25.05
2016-04-18T11:37:30.525Z,25.44
2016-04-18T11:38:30.528Z,25.24
2016-04-18T11:39:30.499Z,25.24
2016-04-18T11:40:30.487Z,25.24
2016-04-18T11:41:30.473Z,25.05
2016-04-18T11:42:30.461Z,25.52
2016-04-18T11:43:30.447Z,26.1
2016-04-18T11:44:30.419Z,25.73
2016-04-18T11:47:30.364Z,23.9
2016-04-18T11:48:30.352Z,23.22
2016-04-18T11:49:30.183Z,21.67
2016-04-18T11:50:30.341Z,21.38
2016-04-18T11:51:30.313Z,20.9
2016-04-18T11:52:30.159Z,20.7
2016-04-18T11:53:30.272Z,20.72
2016-04-18T11:54:30.244Z,20.15
2016-04-18T11:55:30.230Z,20.25
2016-04-18T11:56:30.217Z,19.31
2016-04-18T11:57:30.188Z,19.12
2016-04-18T11:58:30.175Z,18.37
2016-04-18T11:59:30.177Z,17.99
2016-04-18T12:00:30.149Z,18.1
2016-04-18T12:01:30.137Z,17.62
2016-04-18T12:02:30.108Z,17.33
2016-04-18T12:03:30.110Z,17.44
2016-04-18T12:04:30.192Z,17.16
2016-04-18T12:05:30.068Z,17.25
2016-04-18T12:06:30.056Z,17.54
2016-04-18T12:07:30.043Z,17.64
2016-04-18T12:08:30.031Z,17.74
2016-04-18T12:09:30.002Z,17.93
2016-04-18T12:10:29.973Z,17.83
2016-04-18T12:15:29.908Z,18.88
2016-04-18T12:16:29.895Z,18.79
2016-04-18T12:17:29.883Z,19.17
2016-04-18T12:18:29.869Z,19.27
2016-04-18T12:19:29.856Z,19.56
2016-04-18T12:20:29.828Z,19.17
2016-04-18T12:21:29.862Z,19.75
2016-04-18T12:22:29.802Z,19.07
2016-04-18T12:23:29.822Z,19.17
2016-04-18T12:24:29.760Z,19.37
2016-04-18T12:25:29.747Z,19.55
2016-04-18T12:26:29.751Z,19.55
2016-04-18T12:27:29.722Z,19.55
2016-04-18T12:28:29.710Z,19.94
2016-04-18T12:29:29.744Z,19.54
2016-04-18T12:32:29.658Z,19.93
2016-04-18T12:33:29.629Z,20.03
2016-04-18T12:34:29.632Z,20.59
2016-04-18T12:35:29.619Z,20.31
2016-04-18T12:36:29.606Z,20.68
2016-04-18T12:37:29.780Z,20.49
2016-04-18T12:38:29.565Z,20.68
2016-04-18T12:39:29.551Z,20.97
2016-04-18T12:40:29.538Z,21.35
2016-04-18T12:41:29.510Z,21.73
2016-04-18T12:42:29.512Z,21.44
2016-04-18T12:43:29.484Z,21.44
2016-04-18T12:44:29.471Z,21.83
2016-04-18T12:45:29.801Z,21.83
2016-04-18T12:46:29.445Z,22.22
2016-04-18T12:47:29.432Z,22.4
2016-04-18T12:48:29.420Z,22.59
2016-04-18T12:49:29.391Z,22.69
2016-04-18T12:50:29.378Z,22.69
2016-04-18T12:51:29.381Z,22.59
2016-04-18T12:52:29.352Z,23.08
2016-04-18T12:53:29.777Z,23.08
2016-04-18T12:54:29.325Z,23.27
2016-04-18T12:55:29.297Z,23.36
2016-04-18T12:56:29.300Z,23.17
2016-04-18T12:57:29.287Z,23.25
2016-04-18T12:58:29.259Z,23.36
2016-04-18T12:59:29.246Z,23.25
2016-04-18T13:00:29.216Z,23.35
2016-04-18T13:01:29.814Z,23.35
2016-04-18T13:02:29.191Z,23.35